sensor_id;sensor_type;location;lat;lon;timestamp;temperature;humidity
30336;DHT22;17142;47.990;7.846;2022-09-09T00:01:37;15.40;99.90
30336;DHT22;17142;47.990;7.846;2022-09-09T00:04:33;15.50;99.90
30336;DHT22;17142;47.990;7.846;2022-09-09T00:07:30;15.50;99.90
30336;DHT22;17142;47.990;7.846;2022-09-09T00:15:27;15.70;99.90
30336;DHT22;17142;47.990;7.846;2022-09-09T00:20:49;15.60;99.90
30336;DHT22;17142;47.990;7.846;2022-09-09T00:23:30;15.50;99.90
30336;DHT22;17142;47.990;7.846;2022-09-09T00:26:09;15.40;99.90
30336;DHT22;17142;47.990;7.846;2022-09-09T00:28:42;15.40;99.90
30336;DHT22;17142;47.990;7.846;2022-09-09T00:31:18;15.30;99.90
30336;DHT22;17142;47.990;7.846;2022-09-09T00:33:51;15.40;99.90
30336;DHT22;17142;47.990;7.846;2022-09-09T00:36:21;15.40;99.90
30336;DHT22;17142;47.990;7.846;2022-09-09T00:38:56;15.40;99.90
30336;DHT22;17142;47.990;7.846;2022-09-09T00:41:39;15.50;99.90
30336;DHT22;17142;47.990;7.846;2022-09-09T00:44:34;15.60;99.90
30336;DHT22;17142;47.990;7.846;2022-09-09T00:50:10;15.70;99.90
30336;DHT22;17142;47.990;7.846;2022-09-09T00:58:01;15.70;99.90
30336;DHT22;17142;47.990;7.846;2022-09-09T01:00:45;15.60;99.90
30336;DHT22;17142;47.990;7.846;2022-09-09T01:03:22;15.70;99.90
30336;DHT22;17142;47.990;7.846;2022-09-09T01:09:38;15.70;99.90
30336;DHT22;17142;47.990;7.846;2022-09-09T05:55:57;17.40;99.90
30336;DHT22;17142;47.990;7.846;2022-09-09T05:58:23;17.50;99.90
30336;DHT22;17142;47.990;7.846;2022-09-09T06:00:49;17.50;99.90
30336;DHT22;17142;47.990;7.846;2022-09-09T06:03:15;17.60;99.90
30336;DHT22;17142;47.990;7.846;2022-09-09T06:05:44;17.70;99.90
30336;DHT22;17142;47.990;7.846;2022-09-09T06:08:14;17.80;99.90
30336;DHT22;17142;47.990;7.846;2022-09-09T06:10:40;17.90;99.90
30336;DHT22;17142;47.990;7.846;2022-09-09T06:13:06;18.00;99.90
30336;DHT22;17142;47.990;7.846;2022-09-09T06:15:35;18.10;99.90
30336;DHT22;17142;47.990;7.846;2022-09-09T06:18:00;18.20;99.90
30336;DHT22;17142;47.990;7.846;2022-09-09T06:20:26;18.30;99.90
30336;DHT22;17142;47.990;7.846;2022-09-09T06:22:55;18.40;99.90
30336;DHT22;17142;47.990;7.846;2022-09-09T06:25:21;18.50;99.90
30336;DHT22;17142;47.990;7.846;2022-09-09T06:27:52;18.80;99.90
30336;DHT22;17142;47.990;7.846;2022-09-09T06:30:18;19.60;99.90
30336;DHT22;17142;47.990;7.846;2022-09-09T06:32:43;19.90;99.90
30336;DHT22;17142;47.990;7.846;2022-09-09T06:35:09;19.90;99.90
30336;DHT22;17142;47.990;7.846;2022-09-09T06:37:36;19.90;99.90
30336;DHT22;17142;47.990;7.846;2022-09-09T06:40:02;19.80;99.90
30336;DHT22;17142;47.990;7.846;2022-09-09T06:42:27;19.80;99.90
30336;DHT22;17142;47.990;7.846;2022-09-09T06:44:55;19.70;99.90
30336;DHT22;17142;47.990;7.846;2022-09-09T06:47:21;19.50;99.90
30336;DHT22;17142;47.990;7.846;2022-09-09T06:49:47;19.30;99.90
30336;DHT22;17142;47.990;7.846;2022-09-09T06:52:14;19.20;99.90
30336;DHT22;17142;47.990;7.846;2022-09-09T06:54:40;19.20;99.90
30336;DHT22;17142;47.990;7.846;2022-09-09T06:57:08;19.10;99.90
30336;DHT22;17142;47.990;7.846;2022-09-09T06:59:33;19.00;99.90
30336;DHT22;17142;47.990;7.846;2022-09-09T07:02:02;19.30;99.90
30336;DHT22;17142;47.990;7.846;2022-09-09T07:04:27;20.20;99.90
30336;DHT22;17142;47.990;7.846;2022-09-09T07:06:53;21.30;99.90
30336;DHT22;17142;47.990;7.846;2022-09-09T07:09:21;22.30;99.90
30336;DHT22;17142;47.990;7.846;2022-09-09T07:11:49;23.30;99.90
30336;DHT22;17142;47.990;7.846;2022-09-09T07:14:16;23.90;98.40
30336;DHT22;17142;47.990;7.846;2022-09-09T07:16:43;23.80;96.30
30336;DHT22;17142;47.990;7.846;2022-09-09T07:19:09;23.40;96.60
30336;DHT22;17142;47.990;7.846;2022-09-09T07:21:36;23.10;96.60
30336;DHT22;17142;47.990;7.846;2022-09-09T07:24:02;23.30;95.70
30336;DHT22;17142;47.990;7.846;2022-09-09T07:26:30;23.60;94.60
30336;DHT22;17142;47.990;7.846;2022-09-09T07:28:58;23.90;94.00
30336;DHT22;17142;47.990;7.846;2022-09-09T07:31:32;23.70;93.60
30336;DHT22;17142;47.990;7.846;2022-09-09T07:34:00;23.30;93.80
30336;DHT22;17142;47.990;7.846;2022-09-09T07:36:31;22.90;94.30
30336;DHT22;17142;47.990;7.846;2022-09-09T07:39:02;22.80;95.00
30336;DHT22;17142;47.990;7.846;2022-09-09T07:41:31;22.80;94.90
30336;DHT22;17142;47.990;7.846;2022-09-09T07:43:59;23.10;95.00
30336;DHT22;17142;47.990;7.846;2022-09-09T07:46:28;23.00;94.10
30336;DHT22;17142;47.990;7.846;2022-09-09T07:48:56;22.50;94.70
30336;DHT22;17142;47.990;7.846;2022-09-09T07:51:29;22.10;95.80
30336;DHT22;17142;47.990;7.846;2022-09-09T07:53:57;21.90;96.00
30336;DHT22;17142;47.990;7.846;2022-09-09T07:56:28;21.70;96.30
30336;DHT22;17142;47.990;7.846;2022-09-09T07:58:55;21.40;96.80
30336;DHT22;17142;47.990;7.846;2022-09-09T08:04:01;20.90;98.20
30336;DHT22;17142;47.990;7.846;2022-09-09T08:06:29;20.70;98.70
30336;DHT22;17142;47.990;7.846;2022-09-09T08:08:55;20.60;99.40
30336;DHT22;17142;47.990;7.846;2022-09-09T08:11:23;20.80;99.40
30336;DHT22;17142;47.990;7.846;2022-09-09T08:13:50;21.20;99.20
30336;DHT22;17142;47.990;7.846;2022-09-09T08:16:19;21.70;98.90
30336;DHT22;17142;47.990;7.846;2022-09-09T08:18:49;21.90;97.70
30336;DHT22;17142;47.990;7.846;2022-09-09T08:21:18;22.00;97.60
30336;DHT22;17142;47.990;7.846;2022-09-09T08:23:45;22.30;97.30
30336;DHT22;17142;47.990;7.846;2022-09-09T08:26:16;22.70;96.50
30336;DHT22;17142;47.990;7.846;2022-09-09T08:28:44;23.20;96.10
30336;DHT22;17142;47.990;7.846;2022-09-09T08:31:14;23.50;94.30
30336;DHT22;17142;47.990;7.846;2022-09-09T08:33:41;23.70;93.70
30336;DHT22;17142;47.990;7.846;2022-09-09T08:36:14;23.70;93.30
30336;DHT22;17142;47.990;7.846;2022-09-09T08:38:42;23.70;92.90
30336;DHT22;17142;47.990;7.846;2022-09-09T08:47:19;23.80;91.50
30336;DHT22;17142;47.990;7.846;2022-09-09T08:57:53;23.30;91.20
30336;DHT22;17142;47.990;7.846;2022-09-09T09:00:20;23.10;91.40
30336;DHT22;17142;47.990;7.846;2022-09-09T09:08:09;22.70;92.10
30336;DHT22;17142;47.990;7.846;2022-09-09T09:13:22;22.90;91.30
30336;DHT22;17142;47.990;7.846;2022-09-09T09:16:00;22.80;91.50
30336;DHT22;17142;47.990;7.846;2022-09-09T09:18:27;22.90;91.20
30336;DHT22;17142;47.990;7.846;2022-09-09T09:23:26;23.30;89.30
30336;DHT22;17142;47.990;7.846;2022-09-09T09:26:00;23.40;88.60
30336;DHT22;17142;47.990;7.846;2022-09-09T09:28:30;23.30;88.90
30336;DHT22;17142;47.990;7.846;2022-09-09T09:31:00;23.30;88.50
30336;DHT22;17142;47.990;7.846;2022-09-09T09:36:07;23.00;85.00
30336;DHT22;17142;47.990;7.846;2022-09-09T09:38:34;22.90;85.30
30336;DHT22;17142;47.990;7.846;2022-09-09T09:41:00;23.10;82.80
30336;DHT22;17142;47.990;7.846;2022-09-09T09:43:34;23.30;82.20
30336;DHT22;17142;47.990;7.846;2022-09-09T09:46:00;23.40;81.70
30336;DHT22;17142;47.990;7.846;2022-09-09T09:48:28;23.50;81.10
30336;DHT22;17142;47.990;7.846;2022-09-09T09:53:34;23.40;78.80
30336;DHT22;17142;47.990;7.846;2022-09-09T09:56:11;23.10;78.90
30336;DHT22;17142;47.990;7.846;2022-09-09T10:01:28;22.60;79.60
30336;DHT22;17142;47.990;7.846;2022-09-09T10:04:21;22.70;79.80
30336;DHT22;17142;47.990;7.846;2022-09-09T10:06:51;22.90;80.10
30336;DHT22;17142;47.990;7.846;2022-09-09T10:09:30;23.20;79.80
30336;DHT22;17142;47.990;7.846;2022-09-09T10:12:15;23.50;78.40
30336;DHT22;17142;47.990;7.846;2022-09-09T10:15:07;23.80;76.50
30336;DHT22;17142;47.990;7.846;2022-09-09T10:23:23;24.50;71.00
30336;DHT22;17142;47.990;7.846;2022-09-09T10:40:37;24.10;67.30
30336;DHT22;17142;47.990;7.846;2022-09-09T10:56:51;21.80;80.70
30336;DHT22;17142;47.990;7.846;2022-09-09T10:59:23;22.20;77.80
30336;DHT22;17142;47.990;7.846;2022-09-09T11:01:53;22.50;76.90
30336;DHT22;17142;47.990;7.846;2022-09-09T11:04:25;22.80;75.30
30336;DHT22;17142;47.990;7.846;2022-09-09T11:06:54;23.10;75.30
30336;DHT22;17142;47.990;7.846;2022-09-09T11:09:27;23.30;76.10
30336;DHT22;17142;47.990;7.846;2022-09-09T11:11:58;23.70;74.90
30336;DHT22;17142;47.990;7.846;2022-09-09T11:14:43;23.80;72.00
30336;DHT22;17142;47.990;7.846;2022-09-09T11:17:20;23.70;72.70
30336;DHT22;17142;47.990;7.846;2022-09-09T11:19:47;23.40;74.00
30336;DHT22;17142;47.990;7.846;2022-09-09T11:25:21;22.80;77.60
30336;DHT22;17142;47.990;7.846;2022-09-09T11:38:18;23.20;75.00
30336;DHT22;17142;47.990;7.846;2022-09-09T11:40:45;23.50;75.10
30336;DHT22;17142;47.990;7.846;2022-09-09T11:43:43;23.80;73.90
30336;DHT22;17142;47.990;7.846;2022-09-09T11:46:10;23.90;72.50
30336;DHT22;17142;47.990;7.846;2022-09-09T11:48:40;23.80;72.10
30336;DHT22;17142;47.990;7.846;2022-09-09T11:56:30;24.00;72.00
30336;DHT22;17142;47.990;7.846;2022-09-09T11:59:04;23.90;72.50
30336;DHT22;17142;47.990;7.846;2022-09-09T12:01:38;23.60;73.40
30336;DHT22;17142;47.990;7.846;2022-09-09T12:04:11;23.40;72.90
30336;DHT22;17142;47.990;7.846;2022-09-09T12:09:24;23.70;66.50
30336;DHT22;17142;47.990;7.846;2022-09-09T12:11:51;23.80;64.20
30336;DHT22;17142;47.990;7.846;2022-09-09T12:17:19;23.80;62.40
